Time;durP1;ratioP1;P1;durP2;ratioP2;P2;SDS_P1;SDS_P2;PMS_P1;PMS_P2;Temp;Humidity;BMP_temperature;BMP_pressure;BME280_temperature;BME280_humidity;BME280_pressure;Samples;Min_cycle;Max_cycle;Signal;HPM_P1;HPM_P2
2023/01/08 00:01:35;;;;;;;5.57;1.70;;;10.70;99.90;;;;;;5035805;28;20025;-77
2023/01/08 00:04:01;;;;;;;4.53;1.70;;;10.70;99.90;;;;;;5035685;28;20025;-77
2023/01/08 00:06:27;;;;;;;5.07;1.83;;;10.70;99.90;;;;;;5052356;28;20025;-77
2023/01/08 00:08:52;;;;;;;4.40;1.63;;;10.70;99.90;;;;;;5052878;28;20474;-77
2023/01/08 00:11:18;;;;;;;5.37;1.90;;;10.70;99.90;;;;;;5060337;28;20021;-77
2023/01/08 00:13:44;;;;;;;3.80;1.93;;;10.70;99.90;;;;;;5044591;28;20025;-77
2023/01/08 00:16:16;;;;;;;5.57;2.13;;;10.70;99.90;;;;;;5058914;28;20051;-77
2023/01/08 00:18:42;;;;;;;4.27;1.50;;;10.80;99.90;;;;;;5054697;28;20048;-77
2023/01/08 00:21:08;;;;;;;4.27;1.53;;;10.70;99.90;;;;;;5052854;28;20497;-77
2023/01/08 00:23:35;;;;;;;4.77;2.37;;;10.80;99.90;;;;;;5052178;28;20033;-78
2023/01/08 00:26:02;;;;;;;6.90;2.30;;;10.80;99.90;;;;;;5051902;28;20120;-77
2023/01/08 00:28:28;;;;;;;7.07;2.40;;;10.80;99.90;;;;;;5052002;28;20100;-77
2023/01/08 00:30:54;;;;;;;4.30;1.97;;;10.80;99.90;;;;;;5035226;28;20035;-78
2023/01/08 00:33:20;;;;;;;5.30;2.17;;;10.80;99.90;;;;;;5035103;28;20025;-77
2023/01/08 00:35:45;;;;;;;6.07;2.10;;;10.80;99.90;;;;;;5035165;28;20393;-77
2023/01/08 00:38:11;;;;;;;5.53;2.33;;;10.80;99.90;;;;;;5051739;28;20040;-77
2023/01/08 00:40:39;;;;;;;4.63;2.10;;;10.80;99.90;;;;;;5051692;28;20029;-77
2023/01/08 00:43:05;;;;;;;5.97;2.10;;;10.80;99.90;;;;;;5051691;28;20029;-77
2023/01/08 00:45:31;;;;;;;6.47;2.33;;;10.90;99.90;;;;;;5054718;28;20020;-77
2023/01/08 00:47:57;;;;;;;5.33;1.97;;;10.90;99.90;;;;;;5039357;28;20025;-77
2023/01/08 00:50:24;;;;;;;5.43;2.33;;;10.90;99.90;;;;;;5057028;28;20503;-77
2023/01/08 00:52:49;;;;;;;6.63;1.93;;;10.90;99.90;;;;;;5055808;28;20052;-77
2023/01/08 00:55:15;;;;;;;6.67;1.80;;;10.90;99.90;;;;;;5055744;28;20458;-77
2023/01/08 00:57:41;;;;;;;4.57;2.10;;;10.80;99.90;;;;;;5055690;28;20029;-77
2023/01/08 01:00:08;;;;;;;5.60;2.07;;;10.90;99.90;;;;;;5039068;28;20021;-77
2023/01/08 01:02:36;;;;;;;7.33;2.00;;;10.90;99.90;;;;;;5056751;28;20048;-78
2023/01/08 01:05:04;;;;;;;6.63;1.87;;;10.90;99.90;;;;;;5055425;28;20020;-77
2023/01/08 01:07:30;;;;;;;5.93;2.47;;;10.80;99.90;;;;;;5039073;28;20033;-77
2023/01/08 01:09:55;;;;;;;4.17;1.87;;;10.90;99.90;;;;;;5055413;28;20159;-77
2023/01/08 01:12:21;;;;;;;5.30;1.83;;;10.90;99.90;;;;;;5055387;28;20029;-77
2023/01/08 01:14:47;;;;;;;7.43;2.73;;;10.90;99.90;;;;;;5055303;28;20029;-77
2023/01/08 01:17:12;;;;;;;4.77;1.83;;;10.90;99.90;;;;;;5038526;28;20025;-77
2023/01/08 01:19:38;;;;;;;4.47;2.27;;;10.90;99.90;;;;;;5056320;28;20051;-77
2023/01/08 01:22:04;;;;;;;6.13;1.97;;;10.90;99.90;;;;;;5038369;28;20025;-77
2023/01/08 01:24:29;;;;;;;5.00;1.77;;;10.90;99.90;;;;;;5055210;28;20024;-78
2023/01/08 01:26:56;;;;;;;7.60;2.17;;;10.90;99.90;;;;;;5038454;28;20033;-77
2023/01/08 01:29:22;;;;;;;5.80;2.27;;;10.90;99.90;;;;;;5055179;28;20029;-77
2023/01/08 01:31:48;;;;;;;7.00;1.90;;;11.00;99.90;;;;;;5055162;28;20029;-77
2023/01/08 01:34:13;;;;;;;5.43;1.83;;;10.90;99.90;;;;;;5038372;28;20025;-77
2023/01/08 01:36:39;;;;;;;4.13;1.80;;;10.80;99.90;;;;;;5054700;28;20501;-77
2023/01/08 01:39:05;;;;;;;4.50;1.90;;;10.80;99.90;;;;;;5038583;28;20385;-77
2023/01/08 01:41:32;;;;;;;6.23;2.30;;;10.80;99.90;;;;;;5054879;28;20013;-77
2023/01/08 01:44:19;;;;;;;5.20;2.40;;;10.80;99.90;;;;;;5054742;28;20021;-77
2023/01/08 01:46:47;;;;;;;5.30;2.17;;;10.80;99.90;;;;;;5054610;28;20029;-77
2023/01/08 01:49:22;;;;;;;6.33;2.70;;;10.80;99.90;;;;;;5038170;28;20044;-77
2023/01/08 01:51:52;;;;;;;5.07;2.20;;;10.70;99.90;;;;;;5038229;28;20033;-77
2023/01/08 01:54:18;;;;;;;5.63;2.20;;;10.70;99.90;;;;;;5054447;28;20143;-77
2023/01/08 01:56:45;;;;;;;9.17;2.13;;;10.70;99.90;;;;;;5053165;28;20469;-77
2023/01/08 01:59:11;;;;;;;7.03;2.27;;;10.70;99.90;;;;;;5054517;28;20021;-76
2023/01/08 02:01:37;;;;;;;4.60;1.83;;;10.70;99.90;;;;;;5054445;28;20466;-77
2023/01/08 02:04:03;;;;;;;6.17;1.93;;;10.70;99.90;;;;;;5054609;28;20028;-76
2023/01/08 02:06:40;;;;;;;9.63;2.93;;;10.70;99.90;;;;;;5054293;28;20017;-77
2023/01/08 02:09:36;;;;;;;9.23;2.97;;;10.70;99.90;;;;;;5054237;28;20021;-78
2023/01/08 02:12:15;;;;;;;7.07;2.30;;;10.70;99.90;;;;;;5054199;28;20579;-77
2023/01/08 02:14:56;;;;;;;6.73;2.10;;;10.70;99.90;;;;;;5054152;28;20021;-77
2023/01/08 02:17:31;;;;;;;6.77;2.17;;;10.70;99.90;;;;;;5054129;28;20021;-77
2023/01/08 02:20:08;;;;;;;5.27;2.30;;;10.70;99.90;;;;;;5053845;28;20036;-77
2023/01/08 02:22:46;;;;;;;6.63;2.40;;;10.70;99.90;;;;;;5054113;28;20449;-77
2023/01/08 02:25:34;;;;;;;5.67;2.43;;;10.70;99.90;;;;;;5054036;28;20159;-77
2023/01/08 02:28:03;;;;;;;5.43;2.53;;;10.70;99.90;;;;;;5053777;28;20117;-77
2023/01/08 02:30:29;;;;;;;5.90;1.83;;;10.70;99.90;;;;;;5053943;28;20094;-77
2023/01/08 02:32:55;;;;;;;6.37;2.00;;;10.70;99.90;;;;;;5053829;28;20020;-77
2023/01/08 02:35:21;;;;;;;6.67;2.17;;;10.70;99.90;;;;;;5053931;28;20036;-77
2023/01/08 02:37:46;;;;;;;5.47;2.00;;;10.70;99.90;;;;;;5054952;28;20036;-77
2023/01/08 02:40:12;;;;;;;5.53;2.10;;;10.70;99.90;;;;;;5037234;28;20476;-77
2023/01/08 02:43:12;;;;;;;7.83;2.67;;;10.80;99.90;;;;;;5053911;28;20469;-77
2023/01/08 02:45:51;;;;;;;6.80;2.00;;;10.70;99.90;;;;;;5053666;28;20017;-77
2023/01/08 02:48:44;;;;;;;6.77;2.47;;;10.80;99.90;;;;;;5053597;28;20021;-83
2023/01/08 02:51:19;;;;;;;6.13;2.10;;;10.80;99.90;;;;;;5053568;28;20075;-84
2023/01/08 02:53:49;;;;;;;6.50;2.40;;;10.70;99.90;;;;;;5053781;28;20392;-86
2023/01/08 02:56:23;;;;;;;4.77;2.03;;;10.70;99.90;;;;;;5053728;28;20029;-86
2023/01/08 02:58:51;;;;;;;8.83;2.10;;;10.70;99.90;;;;;;5053877;28;20021;-85
2023/01/08 03:01:19;;;;;;;8.63;2.30;;;10.60;99.90;;;;;;5053796;28;20366;-86
2023/01/08 03:03:55;;;;;;;5.40;1.70;;;10.60;99.90;;;;;;5054908;28;20036;-86
2023/01/08 03:06:21;;;;;;;6.83;1.57;;;10.50;99.90;;;;;;5054751;28;20029;-85
2023/01/08 03:08:50;;;;;;;4.80;1.53;;;10.40;99.90;;;;;;5053298;28;20091;-86
2023/01/08 03:11:18;;;;;;;3.97;1.40;;;10.40;99.90;;;;;;5053758;28;20028;-85
2023/01/08 03:14:30;;;;;;;6.17;1.00;;;10.30;99.90;;;;;;5053169;28;20032;-86
2023/01/08 03:17:05;;;;;;;5.07;1.00;;;10.20;99.90;;;;;;5047681;28;20041;-88
2023/01/08 03:19:39;;;;;;;7.47;1.33;;;10.20;99.90;;;;;;5053459;28;20126;-85
2023/01/08 03:22:08;;;;;;;8.30;1.15;;;10.10;99.90;;;;;;5053279;28;20481;-87
2023/01/08 03:24:37;;;;;;;4.80;1.23;;;10.10;99.90;;;;;;5053372;28;20013;-85
2023/01/08 03:27:06;;;;;;;9.03;0.80;;;10.00;99.90;;;;;;5054341;28;20025;-84
2023/01/08 03:29:32;;;;;;;5.93;0.90;;;9.90;99.90;;;;;;5052978;28;20025;-86
2023/01/08 03:32:03;;;;;;;5.60;0.80;;;9.90;99.90;;;;;;5036378;28;20576;-83
2023/01/08 03:34:32;;;;;;;2.83;0.60;;;9.80;99.90;;;;;;5053005;28;20433;-84
2023/01/08 03:37:01;;;;;;;3.53;0.60;;;9.70;99.90;;;;;;5052895;28;20059;-86
2023/01/08 03:39:39;;;;;;;7.30;1.00;;;9.70;99.90;;;;;;5052903;28;20540;-84
2023/01/08 03:42:08;;;;;;;4.07;0.70;;;9.60;99.90;;;;;;5052991;28;20025;-87
2023/01/08 03:44:34;;;;;;;4.63;0.70;;;9.50;99.90;;;;;;5052686;28;20017;-85
2023/01/08 03:47:02;;;;;;;4.03;0.70;;;9.40;99.90;;;;;;5036128;28;20116;-83
2023/01/08 03:49:29;;;;;;;6.07;0.83;;;9.40;99.90;;;;;;5052587;28;20021;-86
2023/01/08 03:51:55;;;;;;;3.17;0.83;;;9.30;99.90;;;;;;5053936;28;20085;-86
2023/01/08 03:54:24;;;;;;;4.93;0.53;;;9.30;99.90;;;;;;5052531;28;20029;-86
2023/01/08 03:56:50;;;;;;;5.37;0.60;;;9.30;99.90;;;;;;5052249;28;20054;-85
2023/01/08 03:59:16;;;;;;;6.50;0.60;;;9.30;99.90;;;;;;5035807;28;20052;-84
2023/01/08 04:01:42;;;;;;;9.23;0.77;;;9.20;99.90;;;;;;5053477;28;20469;-85
2023/01/08 04:04:09;;;;;;;10.23;1.03;;;9.10;99.90;;;;;;5035835;28;20029;-83
2023/01/08 04:06:35;;;;;;;5.13;0.60;;;9.10;99.90;;;;;;5035843;28;20021;-84
2023/01/08 04:09:01;;;;;;;3.10;0.70;;;9.10;99.90;;;;;;5052220;28;20115;-84
2023/01/08 04:11:27;;;;;;;7.17;0.90;;;9.10;99.90;;;;;;5052221;28;20056;-85
2023/01/08 04:13:52;;;;;;;6.43;0.73;;;9.10;99.90;;;;;;5035613;28;20512;-85
2023/01/08 04:16:18;;;;;;;1.90;0.53;;;9.10;99.90;;;;;;5035366;28;20037;-84
2023/01/08 04:18:43;;;;;;;6.57;0.77;;;9.00;99.90;;;;;;5051543;28;20420;-85
2023/01/08 04:21:09;;;;;;;4.37;0.67;;;9.00;99.90;;;;;;5051782;28;20070;-85
2023/01/08 04:23:35;;;;;;;3.23;0.90;;;9.00;99.90;;;;;;5052063;28;20079;-84
2023/01/08 04:26:07;;;;;;;3.10;0.53;;;9.00;99.90;;;;;;5053342;28;20035;-84
2023/01/08 04:28:32;;;;;;;3.03;0.67;;;9.00;99.90;;;;;;5052081;28;20388;-85
2023/01/08 04:30:58;;;;;;;11.33;2.00;;;9.00;99.90;;;;;;5051740;28;20082;-84
2023/01/08 04:33:24;;;;;;;5.07;0.70;;;9.00;99.90;;;;;;5051992;28;20396;-85
2023/01/08 04:35:50;;;;;;;4.73;0.70;;;9.00;99.90;;;;;;5035431;28;20389;-86
2023/01/08 04:38:16;;;;;;;9.20;0.70;;;8.90;99.90;;;;;;5035363;28;20040;-85
2023/01/08 04:40:41;;;;;;;4.80;0.50;;;9.00;99.90;;;;;;5035480;28;20033;-85
2023/01/08 04:43:07;;;;;;;7.47;1.07;;;8.90;99.90;;;;;;5035276;28;20032;-85
2023/01/08 04:45:33;;;;;;;5.73;0.90;;;9.00;99.90;;;;;;5035132;28;20120;-85
2023/01/08 04:47:59;;;;;;;5.03;0.67;;;9.00;99.90;;;;;;5051732;28;20021;-84
2023/01/08 04:50:26;;;;;;;3.37;0.67;;;9.00;99.90;;;;;;5035004;28;20040;-84
2023/01/08 04:52:52;;;;;;;5.67;1.07;;;9.00;99.90;;;;;;5053026;28;20029;-85
2023/01/08 04:55:17;;;;;;;5.00;0.80;;;9.00;99.90;;;;;;5035267;28;20496;-85
2023/01/08 04:57:43;;;;;;;5.77;0.70;;;9.00;99.90;;;;;;5051775;28;20037;-86
2023/01/08 05:00:09;;;;;;;7.23;0.77;;;9.00;99.90;;;;;;5035331;28;20021;-86
2023/01/08 05:02:35;;;;;;;4.73;0.50;;;9.00;99.90;;;;;;5052968;28;20043;-86
2023/01/08 05:05:01;;;;;;;7.87;0.90;;;9.00;99.90;;;;;;5035247;28;20025;-85
2023/01/08 05:07:26;;;;;;;3.00;0.60;;;9.10;99.90;;;;;;5035013;28;20029;-85
2023/01/08 05:09:52;;;;;;;4.23;0.50;;;9.10;99.90;;;;;;5052029;28;20049;-86
2023/01/08 05:12:18;;;;;;;4.57;0.50;;;9.10;99.90;;;;;;5034943;28;20025;-85
2023/01/08 05:14:43;;;;;;;5.53;0.60;;;9.00;99.90;;;;;;5034836;28;20029;-85
2023/01/08 05:17:09;;;;;;;5.80;0.73;;;9.00;99.90;;;;;;5051719;28;20489;-86
2023/01/08 05:19:35;;;;;;;8.10;0.80;;;9.10;99.90;;;;;;5051377;28;20132;-85
2023/01/08 05:22:00;;;;;;;7.77;0.80;;;9.10;99.90;;;;;;5034996;28;20461;-86
2023/01/08 05:24:26;;;;;;;8.07;1.03;;;9.10;99.90;;;;;;5051465;28;20033;-86
2023/01/08 05:26:52;;;;;;;4.90;0.80;;;9.10;99.90;;;;;;5036241;28;20056;-85
2023/01/08 05:29:18;;;;;;;7.13;0.90;;;9.10;99.90;;;;;;5054830;28;20070;-86
2023/01/08 05:31:46;;;;;;;6.90;1.00;;;9.10;99.90;;;;;;5041251;28;20037;-85
2023/01/08 05:34:12;;;;;;;3.90;0.83;;;9.10;99.90;;;;;;5040693;28;20033;-85
2023/01/08 05:36:38;;;;;;;3.83;0.83;;;9.00;99.90;;;;;;5040262;28;20048;-84
2023/01/08 05:39:03;;;;;;;8.63;1.33;;;9.10;99.90;;;;;;5038741;28;20040;-84
2023/01/08 05:41:29;;;;;;;5.07;0.80;;;9.10;99.90;;;;;;5038540;28;20028;-85
2023/01/08 05:43:55;;;;;;;3.47;0.80;;;9.10;99.90;;;;;;5037845;28;20017;-84
2023/01/08 05:46:20;;;;;;;4.23;0.97;;;9.10;99.90;;;;;;5036813;28;20120;-84
2023/01/08 05:48:46;;;;;;;6.73;0.87;;;9.10;99.90;;;;;;5036368;28;20025;-84
2023/01/08 05:51:12;;;;;;;6.27;0.67;;;9.10;99.90;;;;;;5037067;28;20029;-84
2023/01/08 05:53:37;;;;;;;5.00;1.10;;;9.10;99.90;;;;;;5054652;28;20059;-84
2023/01/08 05:56:06;;;;;;;8.63;0.90;;;9.10;99.90;;;;;;5038256;28;20128;-83
2023/01/08 05:58:32;;;;;;;6.40;1.03;;;9.10;99.90;;;;;;5053711;28;20397;-84
2023/01/08 06:01:09;;;;;;;3.03;0.80;;;9.10;99.90;;;;;;5038099;28;20029;-84
2023/01/08 06:03:36;;;;;;;3.90;1.00;;;9.10;99.90;;;;;;5054481;28;20100;-84
2023/01/08 06:06:03;;;;;;;8.10;0.80;;;9.10;99.90;;;;;;5054661;28;20085;-83
2023/01/08 06:08:29;;;;;;;5.80;1.27;;;9.10;99.90;;;;;;5054472;28;20033;-84
2023/01/08 06:11:00;;;;;;;6.37;0.87;;;9.10;99.90;;;;;;5038331;28;20029;-83
2023/01/08 06:13:26;;;;;;;5.60;1.43;;;9.10;99.90;;;;;;5054645;28;20029;-84
2023/01/08 06:15:52;;;;;;;3.60;0.93;;;9.10;99.90;;;;;;5055540;28;20362;-85
2023/01/08 06:18:17;;;;;;;3.70;0.70;;;9.10;99.90;;;;;;5037955;28;20040;-85
2023/01/08 06:20:43;;;;;;;5.90;1.30;;;9.10;99.90;;;;;;5054211;28;20077;-84
2023/01/08 06:23:09;;;;;;;1.50;0.60;;;9.10;99.90;;;;;;5037791;28;20025;-83
2023/01/08 06:25:35;;;;;;;6.20;1.00;;;9.10;99.90;;;;;;5038103;28;20392;-83
2023/01/08 06:28:01;;;;;;;3.70;0.77;;;9.10;99.90;;;;;;5054314;28;20380;-84
2023/01/08 06:30:27;;;;;;;3.60;0.70;;;9.10;99.90;;;;;;5054228;28;20362;-83
2023/01/08 06:32:57;;;;;;;2.20;0.67;;;9.00;99.90;;;;;;5054131;28;20035;-84
2023/01/08 06:35:23;;;;;;;3.60;0.70;;;9.00;99.90;;;;;;5054033;28;20024;-84
2023/01/08 06:37:49;;;;;;;3.50;0.80;;;9.00;99.90;;;;;;5054120;28;20473;-83
2023/01/08 06:40:15;;;;;;;2.97;0.77;;;8.90;99.90;;;;;;5037407;28;20032;-84
2023/01/08 06:42:42;;;;;;;3.33;0.70;;;8.90;99.90;;;;;;5053453;28;20029;-83
2023/01/08 06:45:08;;;;;;;7.90;0.70;;;8.80;99.90;;;;;;5053965;28;20465;-83
2023/01/08 06:47:34;;;;;;;4.43;0.70;;;8.80;99.90;;;;;;5053933;28;20079;-84
2023/01/08 06:50:00;;;;;;;4.00;0.53;;;8.70;99.90;;;;;;5053839;28;20033;-84
2023/01/08 06:52:25;;;;;;;5.40;0.77;;;8.70;99.90;;;;;;5037194;28;20064;-84
2023/01/08 06:54:51;;;;;;;2.63;0.50;;;8.70;99.90;;;;;;5037221;28;20033;-85
2023/01/08 06:57:17;;;;;;;2.90;0.40;;;8.60;99.90;;;;;;5036083;28;20036;-84
2023/01/08 06:59:42;;;;;;;5.57;0.90;;;8.60;99.90;;;;;;5028868;28;20026;-84
2023/01/08 07:02:13;;;;;;;4.20;0.80;;;8.50;99.90;;;;;;5042653;28;20032;-84
2023/01/08 07:04:39;;;;;;;4.50;0.90;;;8.50;99.90;;;;;;5044856;28;20024;-83
2023/01/08 07:07:04;;;;;;;3.03;0.70;;;8.40;99.90;;;;;;5071768;28;20163;-85
2023/01/08 07:09:30;;;;;;;4.30;0.90;;;8.40;99.90;;;;;;5028511;28;20029;-85
2023/01/08 07:11:55;;;;;;;4.80;0.70;;;8.30;99.90;;;;;;5035686;28;20028;-83
2023/01/08 07:14:21;;;;;;;5.37;1.13;;;8.30;99.90;;;;;;5050012;28;20037;-85
2023/01/08 07:16:47;;;;;;;6.60;0.70;;;8.40;99.90;;;;;;5051420;28;20035;-84
2023/01/08 07:19:12;;;;;;;4.70;0.90;;;8.30;99.90;;;;;;5051552;28;20104;-83
2023/01/08 07:21:38;;;;;;;5.80;0.90;;;8.30;99.90;;;;;;5036576;28;20124;-84
2023/01/08 07:24:06;;;;;;;3.50;0.67;;;8.30;99.90;;;;;;5035231;28;20569;-84
2023/01/08 07:26:32;;;;;;;6.97;1.27;;;8.20;99.90;;;;;;5035498;28;20025;-84
2023/01/08 07:28:57;;;;;;;5.10;0.70;;;8.20;99.90;;;;;;5036462;28;20503;-84
2023/01/08 07:31:23;;;;;;;6.43;0.73;;;8.20;99.90;;;;;;5053078;28;20033;-84
2023/01/08 07:33:49;;;;;;;3.03;0.60;;;8.20;99.90;;;;;;5035516;28;20033;-85
2023/01/08 07:36:15;;;;;;;6.57;0.70;;;8.20;99.90;;;;;;5035867;28;20047;-84
2023/01/08 07:38:41;;;;;;;4.63;0.90;;;8.10;99.90;;;;;;5036155;28;20029;-84
2023/01/08 07:41:07;;;;;;;4.77;1.03;;;8.10;99.90;;;;;;5053285;28;20373;-85
2023/01/08 07:43:34;;;;;;;5.87;0.70;;;8.10;99.90;;;;;;5037524;28;20017;-84
2023/01/08 07:46:02;;;;;;;5.70;0.80;;;8.10;99.90;;;;;;5037412;28;20028;-84
2023/01/08 07:48:28;;;;;;;13.43;1.00;;;8.10;99.90;;;;;;5053772;28;20028;-84
2023/01/08 07:50:59;;;;;;;6.50;0.90;;;8.10;99.90;;;;;;5053310;28;20033;-83
2023/01/08 07:53:24;;;;;;;5.47;0.70;;;8.10;99.90;;;;;;5053472;28;20528;-83
2023/01/08 07:55:50;;;;;;;6.40;0.70;;;8.10;99.90;;;;;;5036631;28;20040;-85
2023/01/08 07:58:16;;;;;;;7.43;1.10;;;8.10;99.90;;;;;;5036730;28;20032;-82
2023/01/08 08:00:41;;;;;;;8.30;1.93;;;8.10;99.90;;;;;;5036743;28;20032;-83
2023/01/08 08:03:10;;;;;;;5.57;1.17;;;8.00;99.90;;;;;;5052619;28;20049;-83
2023/01/08 08:05:36;;;;;;;7.17;1.00;;;8.00;99.90;;;;;;5052325;28;20025;-83
2023/01/08 08:08:06;;;;;;;8.53;1.07;;;8.00;99.90;;;;;;5052796;28;20554;-84
2023/01/08 08:10:32;;;;;;;11.83;1.17;;;8.00;99.90;;;;;;5069722;28;20036;-83
2023/01/08 08:12:57;;;;;;;5.53;0.93;;;8.00;99.90;;;;;;5052415;28;20078;-85
2023/01/08 08:15:23;;;;;;;4.80;0.93;;;8.00;99.90;;;;;;5035991;28;20499;-84
2023/01/08 08:17:49;;;;;;;9.47;1.13;;;8.00;99.90;;;;;;5052191;28;20060;-85
2023/01/08 08:20:15;;;;;;;2.73;0.80;;;8.00;99.90;;;;;;5035752;28;20393;-85
2023/01/08 08:22:40;;;;;;;7.50;0.70;;;8.00;99.90;;;;;;5035736;28;20093;-84
2023/01/08 08:25:07;;;;;;;10.00;0.90;;;8.00;99.90;;;;;;5052375;28;20116;-84
2023/01/08 08:27:32;;;;;;;7.27;1.30;;;8.00;99.90;;;;;;5052636;28;20031;-85
2023/01/08 08:29:58;;;;;;;5.13;0.97;;;8.00;99.90;;;;;;5052706;28;20400;-83
2023/01/08 08:32:24;;;;;;;8.13;1.30;;;8.00;99.90;;;;;;5035548;28;20123;-82
2023/01/08 08:34:49;;;;;;;12.77;1.40;;;8.00;99.90;;;;;;5035797;28;20036;-85
2023/01/08 08:37:15;;;;;;;9.50;1.40;;;8.00;99.90;;;;;;5035392;28;20033;-85
2023/01/08 08:39:41;;;;;;;12.83;1.37;;;8.10;99.90;;;;;;5052204;28;20021;-84
2023/01/08 08:42:06;;;;;;;7.40;0.70;;;8.10;99.90;;;;;;5035078;28;20025;-83
2023/01/08 08:44:32;;;;;;;8.70;1.03;;;8.10;99.90;;;;;;5051940;28;20090;-85
2023/01/08 08:46:58;;;;;;;5.50;0.93;;;8.10;99.90;;;;;;5051909;28;20025;-84
2023/01/08 08:49:23;;;;;;;8.80;1.20;;;8.10;99.90;;;;;;5051707;28;20474;-84
2023/01/08 08:51:49;;;;;;;8.80;1.23;;;8.10;99.90;;;;;;5052233;28;20032;-83
2023/01/08 08:54:15;;;;;;;5.43;0.93;;;8.20;99.90;;;;;;5052653;28;20086;-83
2023/01/08 08:56:40;;;;;;;7.27;0.83;;;8.20;99.90;;;;;;5068562;28;20473;-84
2023/01/08 08:59:08;;;;;;;11.20;1.10;;;8.20;99.90;;;;;;5071415;28;20124;-84
2023/01/08 09:01:33;;;;;;;5.23;0.90;;;8.30;99.90;;;;;;5031926;28;20039;-84
2023/01/08 09:03:59;;;;;;;4.83;0.77;;;8.30;99.90;;;;;;5032476;28;20017;-84
2023/01/08 09:06:26;;;;;;;10.47;1.20;;;8.40;99.90;;;;;;5051297;28;20120;-83
2023/01/08 09:08:53;;;;;;;9.67;1.13;;;8.40;99.90;;;;;;5019470;28;20037;-83
2023/01/08 09:11:20;;;;;;;10.20;1.23;;;8.50;99.90;;;;;;5019903;28;20022;-84
2023/01/08 09:13:45;;;;;;;10.33;1.03;;;8.50;99.90;;;;;;5036736;28;20466;-85
2023/01/08 09:16:11;;;;;;;5.37;1.23;;;8.50;99.90;;;;;;5053064;28;20129;-85
2023/01/08 09:18:36;;;;;;;6.33;0.80;;;8.60;99.90;;;;;;5018906;28;20037;-84
2023/01/08 09:21:06;;;;;;;7.53;0.90;;;8.60;99.90;;;;;;5018918;28;20050;-83
2023/01/08 09:23:33;;;;;;;9.20;1.23;;;8.70;99.90;;;;;;5035285;28;20026;-83
2023/01/08 09:26:00;;;;;;;7.03;0.80;;;8.70;99.90;;;;;;5035496;28;20017;-83
2023/01/08 09:28:25;;;;;;;9.33;1.10;;;8.70;99.90;;;;;;5051887;28;20025;-83
2023/01/08 09:30:51;;;;;;;4.53;0.60;;;8.80;99.90;;;;;;5018702;28;20030;-83
2023/01/08 09:33:17;;;;;;;11.53;1.43;;;8.80;99.90;;;;;;5045590;28;20037;-85
2023/01/08 09:35:43;;;;;;;6.90;1.03;;;8.80;99.90;;;;;;5055247;28;20033;-84
2023/01/08 09:38:09;;;;;;;9.07;1.37;;;8.90;99.90;;;;;;5055067;28;20033;-83
2023/01/08 09:40:39;;;;;;;8.03;0.90;;;8.90;99.90;;;;;;5055103;28;20082;-84
2023/01/08 09:43:07;;;;;;;6.47;1.30;;;9.10;99.90;;;;;;5055378;28;20028;-83
2023/01/08 09:45:36;;;;;;;10.80;1.23;;;9.20;99.90;;;;;;5038647;28;20395;-83
2023/01/08 09:48:06;;;;;;;7.80;1.43;;;9.40;99.90;;;;;;5055207;28;20029;-82
2023/01/08 09:50:33;;;;;;;9.40;1.27;;;9.40;99.60;;;;;;5054776;28;20029;-83
2023/01/08 09:53:00;;;;;;;7.07;1.50;;;9.30;99.30;;;;;;5054851;28;20409;-77
2023/01/08 09:55:32;;;;;;;11.10;1.23;;;9.30;99.00;;;;;;5038243;28;20079;-79
2023/01/08 09:57:58;;;;;;;12.13;0.83;;;9.20;99.10;;;;;;5054322;28;20029;-82
2023/01/08 10:00:30;;;;;;;9.30;0.97;;;9.10;99.00;;;;;;5054684;28;20025;-83
2023/01/08 10:02:56;;;;;;;9.47;1.27;;;9.10;99.10;;;;;;5053729;28;20032;-82
2023/01/08 10:05:24;;;;;;;9.57;1.27;;;9.00;99.20;;;;;;5081844;28;20362;-82
2023/01/08 10:07:50;;;;;;;10.37;1.10;;;9.00;99.30;;;;;;5062867;28;20389;-83
2023/01/08 10:10:24;;;;;;;9.10;0.90;;;8.90;99.70;;;;;;5053920;28;20032;-82
2023/01/08 10:12:51;;;;;;;5.77;0.80;;;9.30;99.90;;;;;;5052011;28;20028;-82
2023/01/08 10:15:18;;;;;;;6.53;0.70;;;9.90;99.90;;;;;;5053379;28;20033;-82
2023/01/08 10:18:03;;;;;;;5.40;0.68;;;10.60;99.90;;;;;;5053051;28;20024;-83
2023/01/08 10:20:30;;;;;;;5.80;0.75;;;11.20;99.90;;;;;;5054192;28;20041;-83
2023/01/08 10:23:11;;;;;;;4.55;0.70;;;11.60;99.90;;;;;;5054308;28;20021;-83
2023/01/08 10:25:58;;;;;;;8.18;1.30;;;12.00;99.60;;;;;;5087567;28;20021;-83
2023/01/08 10:28:29;;;;;;;6.03;1.05;;;12.30;98.70;;;;;;5055652;28;20029;-83
2023/01/08 10:31:03;;;;;;;7.25;1.08;;;12.50;97.50;;;;;;5054257;28;20025;-83
2023/01/08 10:33:37;;;;;;;7.03;0.90;;;12.80;96.50;;;;;;5072118;28;20433;-83
2023/01/08 10:36:05;;;;;;;;;;;13.10;95.70;;;;;;5041841;28;20031;-82
2023/01/08 10:38:56;;;;;;;8.00;0.95;;;13.40;92.80;;;;;;5053945;28;19916;-82
2023/01/08 10:41:22;;;;;;;7.18;0.98;;;13.40;91.90;;;;;;5037332;28;20481;-84
2023/01/08 10:44:00;;;;;;;8.40;1.25;;;13.50;90.80;;;;;;5037608;28;20028;-83
2023/01/08 10:46:34;;;;;;;7.80;1.20;;;13.60;90.80;;;;;;5055704;28;20457;-83
2023/01/08 10:49:04;;;;;;;4.93;0.68;;;13.70;90.60;;;;;;5053809;28;20025;-82
2023/01/08 10:51:31;;;;;;;5.90;0.88;;;13.80;90.10;;;;;;5053552;28;20104;-83
2023/01/08 10:54:38;;;;;;;9.63;0.93;;;13.80;88.90;;;;;;5053601;28;20473;-82
2023/01/08 10:57:27;;;;;;;5.32;0.75;;;13.90;88.10;;;;;;5053485;28;20025;-82
2023/01/08 10:59:53;;;;;;;10.02;1.30;;;14.10;86.90;;;;;;5053436;28;20104;-82
2023/01/08 11:02:25;;;;;;;4.20;0.65;;;14.20;86.20;;;;;;5053706;28;20341;-83
2023/01/08 11:04:51;;;;;;;10.43;1.38;;;14.40;86.40;;;;;;5053350;28;20575;-82
2023/01/08 11:07:22;;;;;;;4.90;1.08;;;14.60;85.50;;;;;;5060705;28;20468;-83
2023/01/08 11:09:50;;;;;;;7.18;0.93;;;15.10;85.10;;;;;;5054713;28;20025;-83
2023/01/08 11:12:39;;;;;;;6.75;1.00;;;15.40;84.50;;;;;;5053422;28;20025;-83
2023/01/08 11:15:20;;;;;;;5.68;0.95;;;15.50;82.50;;;;;;5053137;28;20431;-83
2023/01/08 11:17:45;;;;;;;7.63;1.10;;;15.70;81.60;;;;;;5053192;28;20033;-83
2023/01/08 11:20:27;;;;;;;3.55;0.80;;;15.80;80.10;;;;;;5036475;28;20029;-83
2023/01/08 11:23:04;;;;;;;4.07;0.70;;;15.90;77.20;;;;;;5054423;28;20374;-83
2023/01/08 11:25:30;;;;;;;6.45;0.98;;;15.80;75.50;;;;;;5036573;28;20025;-82
2023/01/08 11:27:58;;;;;;;3.78;0.65;;;15.80;75.00;;;;;;5053132;28;20063;-82
2023/01/08 11:30:26;;;;;;;5.95;0.90;;;15.90;75.20;;;;;;5053070;28;20032;-83
2023/01/08 11:32:54;;;;;;;5.75;1.00;;;15.90;75.00;;;;;;5053042;28;20028;-83
2023/01/08 11:35:24;;;;;;;4.90;0.68;;;15.80;74.00;;;;;;5052890;28;20055;-83
2023/01/08 11:37:58;;;;;;;5.05;0.80;;;15.60;73.10;;;;;;5036097;28;20030;-82
2023/01/08 11:40:30;;;;;;;;;;;15.50;73.30;;;;;;5053425;28;20442;-83
2023/01/08 11:42:55;;;;;;;5.97;0.80;;;15.40;73.70;;;;;;5053070;28;19911;-83
2023/01/08 11:45:49;;;;;;;5.13;0.73;;;15.40;74.30;;;;;;5052775;28;20123;-83
2023/01/08 11:48:48;;;;;;;4.20;0.57;;;15.40;74.10;;;;;;5032901;28;20033;-85
2023/01/08 11:51:35;;;;;;;5.18;0.95;;;15.50;74.30;;;;;;5052124;28;20029;-83
2023/01/08 11:54:23;;;;;;;3.33;0.75;;;15.40;74.30;;;;;;5085863;28;20029;-83
2023/01/08 11:57:33;;;;;;;4.05;0.80;;;15.50;72.90;;;;;;5052095;28;20029;-82
2023/01/08 12:00:22;;;;;;;6.47;0.73;;;15.40;73.10;;;;;;5051192;28;20025;-82
2023/01/08 12:03:19;;;;;;;2.85;0.43;;;15.30;73.00;;;;;;5052909;28;20036;-83
2023/01/08 12:05:46;;;;;;;3.13;0.43;;;15.40;72.90;;;;;;5045915;28;20033;-84
2023/01/08 12:08:34;;;;;;;2.88;0.55;;;15.60;72.90;;;;;;5053576;28;20538;-82
2023/01/08 12:11:06;;;;;;;3.00;0.50;;;15.80;72.90;;;;;;5086059;28;20033;-83
2023/01/08 12:14:00;;;;;;;1.77;0.43;;;16.10;73.00;;;;;;5052042;28;20033;-83
2023/01/08 12:16:48;;;;;;;2.03;0.32;;;16.50;72.60;;;;;;5084745;28;20021;-83
2023/01/08 12:19:47;;;;;;;3.13;0.40;;;17.10;70.70;;;;;;5052815;28;20508;-82
2023/01/08 12:22:27;;;;;;;0.90;0.32;;;17.50;70.00;;;;;;5051284;28;20040;-82
2023/01/08 12:24:55;;;;;;;1.80;0.40;;;17.90;68.50;;;;;;5051645;28;20343;-82
2023/01/08 12:27:39;;;;;;;2.22;0.40;;;18.40;67.80;;;;;;5051835;28;20061;-83
2023/01/08 12:30:30;;;;;;;1.05;0.20;;;18.80;66.80;;;;;;5053149;28;20021;-83
2023/01/08 12:33:15;;;;;;;2.67;0.30;;;19.20;65.30;;;;;;5052026;28;20029;-82
2023/01/08 12:35:49;;;;;;;1.42;0.30;;;19.70;63.70;;;;;;5051665;28;20151;-82
2023/01/08 12:38:21;;;;;;;0.88;0.20;;;20.00;62.60;;;;;;5085187;28;20036;-83
2023/01/08 12:41:11;;;;;;;0.70;0.20;;;20.00;60.70;;;;;;5084520;28;20017;-82
2023/01/08 12:43:52;;;;;;;1.63;0.30;;;20.20;60.50;;;;;;5045888;28;20496;-83
2023/01/08 12:46:23;;;;;;;1.10;0.40;;;20.10;58.90;;;;;;5085178;28;20017;-83
2023/01/08 12:48:52;;;;;;;1.95;0.30;;;20.20;59.10;;;;;;5085114;28;20029;-82
2023/01/08 12:51:18;;;;;;;1.52;0.30;;;20.30;58.00;;;;;;5085092;28;20108;-82
2023/01/08 12:54:08;;;;;;;1.05;0.20;;;20.30;57.50;;;;;;5051625;28;20512;-84
2023/01/08 12:56:50;;;;;;;0.40;0.20;;;20.40;57.50;;;;;;5051371;28;20017;-83
2023/01/08 12:59:16;;;;;;;0.52;0.10;;;20.50;57.30;;;;;;5051564;28;20112;-82
2023/01/08 13:02:09;;;;;;;0.93;0.13;;;20.40;57.10;;;;;;5051541;28;20553;-83
2023/01/08 13:04:46;;;;;;;1.95;0.30;;;20.30;57.00;;;;;;5085284;28;20021;-83
2023/01/08 13:07:22;;;;;;;0.57;0.20;;;20.00;55.10;;;;;;5051749;28;20116;-83